createdAt,value
2022-07-26T00:01:49.335Z,19.17
2022-07-26T00:04:18.503Z,19.30
2022-07-26T00:06:46.202Z,19.28
2022-07-26T00:09:14.055Z,19.24
2022-07-26T00:11:41.839Z,19.22
2022-07-26T00:14:10.206Z,19.05
2022-07-26T00:16:39.616Z,19.26
2022-07-26T00:19:08.652Z,18.96
2022-07-26T00:21:40.631Z,19.02
2022-07-26T00:24:09.665Z,19.05
2022-07-26T00:26:37.944Z,19.08
2022-07-26T00:29:06.172Z,19.12
2022-07-26T00:31:34.406Z,19.19
2022-07-26T00:34:02.165Z,18.96
2022-07-26T00:36:29.917Z,19.16
2022-07-26T00:38:58.978Z,19.01
2022-07-26T00:41:26.740Z,18.98
2022-07-26T00:43:56.245Z,19.09
2022-07-26T00:46:24.151Z,18.98
2022-07-26T00:48:52.351Z,18.93
2022-07-26T00:51:20.804Z,18.93
2022-07-26T00:53:48.520Z,18.72
2022-07-26T00:56:18.293Z,18.94
2022-07-26T00:58:46.473Z,18.82
2022-07-26T01:01:14.275Z,18.90
2022-07-26T01:03:42.889Z,18.95
2022-07-26T01:06:10.927Z,18.91
2022-07-26T01:08:39.005Z,18.72
2022-07-26T01:11:06.971Z,18.70
2022-07-26T01:13:36.044Z,18.86
2022-07-26T01:16:04.552Z,18.86
2022-07-26T01:18:32.432Z,18.85
2022-07-26T01:21:13.759Z,18.86
2022-07-26T01:23:44.733Z,18.70
2022-07-26T01:26:12.732Z,18.88
2022-07-26T01:28:42.650Z,18.86
2022-07-26T01:31:10.456Z,18.61
2022-07-26T01:33:38.235Z,18.74
2022-07-26T01:36:06.647Z,18.70
2022-07-26T01:38:34.370Z,18.70
2022-07-26T01:41:03.527Z,18.77
2022-07-26T01:43:32.186Z,18.86
2022-07-26T01:45:59.984Z,18.70
2022-07-26T01:48:27.855Z,18.63
2022-07-26T01:50:55.559Z,18.63
2022-07-26T01:53:23.227Z,18.53
2022-07-26T01:55:50.911Z,18.46
2022-07-26T01:58:20.179Z,18.41
2022-07-26T02:00:47.870Z,18.42
2022-07-26T02:03:15.764Z,18.43
2022-07-26T02:05:43.633Z,18.42
2022-07-26T02:08:11.618Z,18.17
2022-07-26T02:10:58.598Z,18.19
2022-07-26T02:13:27.592Z,18.20
2022-07-26T02:15:55.403Z,18.11
2022-07-26T02:18:23.131Z,18.16
2022-07-26T02:20:50.774Z,18.07
2022-07-26T02:23:18.458Z,18.23
2022-07-26T02:25:46.280Z,18.13
2022-07-26T02:28:14.192Z,17.98
2022-07-26T02:30:43.367Z,18.15
2022-07-26T02:33:11.095Z,18.12
2022-07-26T02:35:41.980Z,17.95
2022-07-26T02:38:12.132Z,18.07
2022-07-26T02:40:40.805Z,18.13
2022-07-26T02:43:09.811Z,18.11
2022-07-26T02:45:37.890Z,18.14
2022-07-26T02:48:07.356Z,18.11
2022-07-26T02:50:35.874Z,18.08
2022-07-26T02:53:03.640Z,18.08
2022-07-26T02:55:31.482Z,18.06
2022-07-26T02:57:59.168Z,18.10
2022-07-26T03:00:28.235Z,18.12
2022-07-26T03:02:56.091Z,18.03
2022-07-26T03:05:25.217Z,18.14
2022-07-26T03:07:52.903Z,18.03
2022-07-26T03:10:20.876Z,18.15
2022-07-26T03:12:48.606Z,18.13
2022-07-26T03:15:16.315Z,18.16
2022-07-26T03:17:44.013Z,17.94
2022-07-26T03:20:13.266Z,18.07
2022-07-26T03:22:42.698Z,18.01
2022-07-26T03:25:10.493Z,18.19
2022-07-26T03:27:38.189Z,18.09
2022-07-26T03:30:06.903Z,18.08
2022-07-26T03:32:34.650Z,18.07
2022-07-26T03:35:02.358Z,18.14
2022-07-26T03:37:45.982Z,18.12
2022-07-26T03:40:16.154Z,18.04
2022-07-26T03:42:44.227Z,18.07
2022-07-26T03:45:13.527Z,18.16
2022-07-26T03:47:41.667Z,18.16
2022-07-26T03:50:11.070Z,18.11
2022-07-26T03:52:39.202Z,18.14
2022-07-26T03:55:21.592Z,18.10
2022-07-26T03:57:50.660Z,18.09
2022-07-26T04:00:18.679Z,18.08
2022-07-26T04:02:46.646Z,18.07
2022-07-26T04:05:14.554Z,18.09
2022-07-26T04:07:43.774Z,18.16
2022-07-26T04:10:21.698Z,18.11
2022-07-26T04:12:51.306Z,18.09
2022-07-26T04:15:20.940Z,18.11
2022-07-26T04:17:49.177Z,18.12
2022-07-26T04:20:17.663Z,18.04
2022-07-26T04:22:45.911Z,18.01
2022-07-26T04:25:13.729Z,18.14
2022-07-26T04:27:41.373Z,18.09
2022-07-26T04:30:15.134Z,18.06
2022-07-26T04:32:43.962Z,18.17
2022-07-26T04:35:13.540Z,18.09
2022-07-26T04:37:42.697Z,18.21
2022-07-26T04:40:12.981Z,18.21
2022-07-26T04:42:40.875Z,18.16
2022-07-26T04:45:12.662Z,18.10
2022-07-26T04:47:42.337Z,18.14
2022-07-26T04:50:10.967Z,18.19
2022-07-26T04:52:38.895Z,18.15
2022-07-26T04:55:07.475Z,18.15
2022-07-26T04:57:35.308Z,18.17
2022-07-26T05:00:21.258Z,18.11
2022-07-26T05:02:52.452Z,18.10
2022-07-26T05:05:20.643Z,18.08
2022-07-26T05:07:50.290Z,18.12
2022-07-26T05:10:18.779Z,18.20
2022-07-26T05:12:46.944Z,18.20
2022-07-26T05:15:15.943Z,18.20
2022-07-26T05:17:44.353Z,18.22
2022-07-26T05:20:16.771Z,18.16
2022-07-26T05:22:45.653Z,18.11
2022-07-26T05:25:13.408Z,18.15
2022-07-26T05:27:41.776Z,18.13
2022-07-26T05:30:11.233Z,18.08
2022-07-26T05:32:40.106Z,18.03
2022-07-26T05:35:09.322Z,18.11
2022-07-26T05:37:38.490Z,17.99
2022-07-26T05:40:07.849Z,18.04
2022-07-26T05:42:35.522Z,18.15
2022-07-26T05:45:03.278Z,18.09
2022-07-26T05:47:31.100Z,18.15
2022-07-26T05:49:58.797Z,18.14
2022-07-26T05:52:26.566Z,18.10
2022-07-26T05:54:55.539Z,18.15
2022-07-26T05:57:23.195Z,18.12
2022-07-26T05:59:50.844Z,18.09
2022-07-26T06:02:18.570Z,18.06
2022-07-26T06:04:47.407Z,18.17
2022-07-26T06:07:15.551Z,18.16
2022-07-26T06:09:43.405Z,18.12
2022-07-26T06:12:12.547Z,18.16
2022-07-26T06:14:40.254Z,18.07
2022-07-26T06:17:07.994Z,18.06
2022-07-26T06:19:35.882Z,18.07
2022-07-26T06:22:04.381Z,18.10
2022-07-26T06:24:35.094Z,18.09
2022-07-26T06:27:05.209Z,18.13
2022-07-26T06:29:34.902Z,18.19
2022-07-26T06:32:02.789Z,18.17
2022-07-26T06:34:30.511Z,18.21
2022-07-26T06:36:58.145Z,18.22
2022-07-26T06:39:25.784Z,18.26
2022-07-26T06:41:53.428Z,18.22
2022-07-26T06:44:23.802Z,18.27
2022-07-26T06:46:52.809Z,18.17
2022-07-26T06:49:22.733Z,18.10
2022-07-26T06:51:50.961Z,18.04
2022-07-26T06:54:18.607Z,18.00
2022-07-26T06:56:46.246Z,18.01
2022-07-26T06:59:13.881Z,17.91
2022-07-26T07:01:51.306Z,18.03
2022-07-26T07:04:27.397Z,17.91
2022-07-26T07:06:55.206Z,18.06
2022-07-26T07:09:25.420Z,18.04
2022-07-26T07:11:57.413Z,18.06
2022-07-26T07:14:28.222Z,17.90
2022-07-26T07:16:56.542Z,17.88
2022-07-26T07:19:24.969Z,17.89
2022-07-26T07:21:54.199Z,17.85
2022-07-26T07:24:23.416Z,17.69
2022-07-26T07:26:51.154Z,17.72
2022-07-26T07:29:20.248Z,17.56
2022-07-26T07:31:49.849Z,17.72
2022-07-26T07:34:22.579Z,17.47
2022-07-26T07:36:52.079Z,17.52
2022-07-26T07:39:21.230Z,17.50
2022-07-26T07:41:49.825Z,17.38
2022-07-26T07:44:17.728Z,17.46
2022-07-26T07:46:45.449Z,17.47
2022-07-26T07:49:13.556Z,17.56
2022-07-26T07:51:41.473Z,17.47
2022-07-26T07:54:09.523Z,17.53
2022-07-26T07:56:39.027Z,17.65
2022-07-26T07:59:10.351Z,17.72
2022-07-26T08:01:40.250Z,17.73
2022-07-26T08:04:08.759Z,17.74
2022-07-26T08:06:36.753Z,17.76
2022-07-26T08:09:05.562Z,17.82
2022-07-26T08:11:34.524Z,17.74
2022-07-26T08:14:03.884Z,17.85
2022-07-26T08:16:31.713Z,17.74
2022-07-26T08:18:59.431Z,17.75
2022-07-26T08:21:29.105Z,17.74
2022-07-26T08:23:57.029Z,17.78
2022-07-26T08:26:26.083Z,17.80
2022-07-26T08:29:00.076Z,17.73
2022-07-26T08:31:29.691Z,17.62
2022-07-26T08:33:57.771Z,17.64
2022-07-26T08:36:31.811Z,17.66
2022-07-26T08:39:02.795Z,17.65
2022-07-26T08:41:31.880Z,17.57
2022-07-26T08:44:06.266Z,17.49
2022-07-26T08:46:37.415Z,17.51
2022-07-26T08:49:05.950Z,17.61
2022-07-26T08:51:34.899Z,17.66
2022-07-26T08:54:05.792Z,17.59
2022-07-26T08:56:35.659Z,17.59
2022-07-26T08:59:19.154Z,17.55
2022-07-26T09:02:08.555Z,17.71
2022-07-26T09:04:43.840Z,17.77
2022-07-26T09:07:15.505Z,17.90
2022-07-26T09:09:59.194Z,17.87
2022-07-26T09:12:29.531Z,17.89
2022-07-26T09:14:58.095Z,17.97
2022-07-26T09:17:39.605Z,18.03
2022-07-26T09:20:10.208Z,17.98
2022-07-26T09:22:39.177Z,18.04
2022-07-26T09:25:21.632Z,18.06
2022-07-26T09:27:50.141Z,18.13
2022-07-26T09:30:17.858Z,18.17
2022-07-26T09:33:00.958Z,18.13
2022-07-26T09:35:51.190Z,18.31
2022-07-26T09:38:18.481Z,18.37
2022-07-26T09:40:50.481Z,18.42
2022-07-26T09:43:19.975Z,18.22
2022-07-26T09:46:04.776Z,18.40
2022-07-26T09:49:07.066Z,18.40
2022-07-26T09:51:37.306Z,18.52
2022-07-26T09:54:05.477Z,18.55
2022-07-26T09:56:44.779Z,18.67
2022-07-26T09:59:14.022Z,18.87
2022-07-26T10:01:42.142Z,18.98
2022-07-26T10:04:14.929Z,19.13
2022-07-26T10:06:43.727Z,19.16
2022-07-26T10:09:12.755Z,19.26
2022-07-26T10:11:44.785Z,19.35
2022-07-26T10:14:38.279Z,19.58
2022-07-26T10:17:45.691Z,19.83
2022-07-26T10:20:46.789Z,19.90
2022-07-26T10:23:37.745Z,19.67
2022-07-26T10:26:07.088Z,19.52
2022-07-26T10:28:41.039Z,19.48
2022-07-26T10:31:32.552Z,19.57
2022-07-26T10:34:02.195Z,19.59
2022-07-26T10:36:34.153Z,19.52
2022-07-26T10:39:13.247Z,19.57
2022-07-26T10:41:44.332Z,19.55
2022-07-26T10:44:20.551Z,19.52
2022-07-26T10:47:03.646Z,19.41
2022-07-26T10:49:35.966Z,19.41
2022-07-26T10:52:14.017Z,19.52
2022-07-26T10:55:11.113Z,19.58
2022-07-26T10:57:40.991Z,19.67
2022-07-26T11:00:12.754Z,19.79
2022-07-26T11:02:43.373Z,19.98
2022-07-26T11:05:16.590Z,20.05
2022-07-26T11:07:57.855Z,20.25
2022-07-26T11:10:28.125Z,20.16
2022-07-26T11:13:12.864Z,20.32
2022-07-26T11:15:42.789Z,20.46
2022-07-26T11:18:16.123Z,20.47
2022-07-26T11:20:46.531Z,20.45
2022-07-26T11:23:30.662Z,20.42
2022-07-26T11:26:06.931Z,20.40
2022-07-26T11:28:53.401Z,20.48
2022-07-26T11:31:23.573Z,20.57
2022-07-26T11:34:18.406Z,20.59
2022-07-26T11:36:48.450Z,20.54
2022-07-26T11:39:22.659Z,20.53
2022-07-26T11:41:52.228Z,20.33
2022-07-26T11:44:22.059Z,20.30
2022-07-26T11:46:51.462Z,20.14
2022-07-26T11:49:22.889Z,20.10
2022-07-26T11:51:55.152Z,20.07
2022-07-26T11:54:26.597Z,20.06
2022-07-26T11:56:56.281Z,20.03
2022-07-26T11:59:28.837Z,19.92
2022-07-26T12:01:57.238Z,19.78
2022-07-26T12:04:27.798Z,19.79
2022-07-26T12:06:56.759Z,19.77
2022-07-26T12:09:34.543Z,19.70
2022-07-26T12:12:03.332Z,19.66
2022-07-26T12:14:32.895Z,19.69
2022-07-26T12:17:11.641Z,19.67
2022-07-26T12:19:39.602Z,19.71
2022-07-26T12:22:12.975Z,19.79
2022-07-26T12:24:45.698Z,19.90
2022-07-26T12:27:15.959Z,19.91
2022-07-26T12:29:45.756Z,19.88
2022-07-26T12:32:15.736Z,19.97
2022-07-26T12:34:56.701Z,20.08
2022-07-26T12:37:37.687Z,20.21
2022-07-26T12:40:11.630Z,20.34
2022-07-26T12:42:41.621Z,20.38
2022-07-26T12:45:12.380Z,20.47
2022-07-26T12:47:43.241Z,20.64
2022-07-26T12:50:12.929Z,20.90
2022-07-26T12:52:41.303Z,21.11
2022-07-26T12:55:13.886Z,21.18
2022-07-26T12:57:46.102Z,21.31
2022-07-26T13:00:16.507Z,21.24
2022-07-26T13:02:44.535Z,21.36
2022-07-26T13:05:13.134Z,21.41
2022-07-26T13:07:41.335Z,21.67
2022-07-26T13:13:00.254Z,21.86
2022-07-26T13:15:35.210Z,21.76
2022-07-26T13:18:07.987Z,21.61
2022-07-26T13:20:37.742Z,21.61
2022-07-26T13:23:05.723Z,21.55
2022-07-26T13:25:39.685Z,21.59
2022-07-26T13:28:08.942Z,21.52
2022-07-26T13:30:37.758Z,21.63
2022-07-26T13:33:05.653Z,21.59
2022-07-26T13:35:33.447Z,21.47
2022-07-26T13:38:01.286Z,21.59
2022-07-26T13:40:31.787Z,21.58
2022-07-26T13:43:01.392Z,21.65
2022-07-26T13:45:29.792Z,21.72
2022-07-26T13:47:59.352Z,21.71
2022-07-26T13:50:27.202Z,21.63
2022-07-26T13:52:55.319Z,21.69
2022-07-26T13:55:23.296Z,21.74
2022-07-26T13:57:57.247Z,21.61
2022-07-26T14:00:29.583Z,21.58
2022-07-26T14:02:59.538Z,21.52
2022-07-26T14:05:28.655Z,21.45
2022-07-26T14:07:56.650Z,21.37
2022-07-26T14:10:25.527Z,21.13
2022-07-26T14:12:53.527Z,21.08
2022-07-26T14:15:23.359Z,21.06
2022-07-26T14:17:54.029Z,20.99
2022-07-26T14:20:22.695Z,20.98
2022-07-26T14:22:53.357Z,21.03
2022-07-26T14:25:21.725Z,21.01
2022-07-26T14:27:49.728Z,20.96
2022-07-26T14:30:17.807Z,20.78
2022-07-26T14:32:45.602Z,20.91
2022-07-26T14:35:16.461Z,21.01
2022-07-26T14:37:45.575Z,20.89
2022-07-26T14:40:15.189Z,20.94
2022-07-26T14:42:43.025Z,20.97
2022-07-26T14:45:11.687Z,21.21
2022-07-26T14:47:39.554Z,21.29
2022-07-26T14:50:08.596Z,21.33
2022-07-26T14:52:39.334Z,21.40
2022-07-26T14:55:08.187Z,21.40
2022-07-26T14:57:39.328Z,21.33
2022-07-26T15:00:09.273Z,21.40
2022-07-26T15:02:39.441Z,21.38
2022-07-26T15:05:07.575Z,21.26
2022-07-26T15:07:35.306Z,21.17
2022-07-26T15:10:05.322Z,21.24
2022-07-26T15:12:34.176Z,21.06
2022-07-26T15:15:01.863Z,21.18
2022-07-26T15:17:29.675Z,21.33
2022-07-26T15:19:57.392Z,21.24
2022-07-26T15:22:25.165Z,21.35
2022-07-26T15:24:53.005Z,21.32
2022-07-26T15:27:22.111Z,21.33
2022-07-26T15:29:50.941Z,21.38
2022-07-26T15:32:18.828Z,21.29
2022-07-26T15:34:46.615Z,21.39
2022-07-26T15:37:14.399Z,21.33
2022-07-26T15:39:42.306Z,21.38
2022-07-26T15:42:15.227Z,21.40
2022-07-26T15:44:44.468Z,21.45
2022-07-26T15:47:22.077Z,21.58
2022-07-26T15:49:53.824Z,21.66
2022-07-26T15:52:21.543Z,21.64
2022-07-26T15:54:49.321Z,21.64
2022-07-26T15:57:17.225Z,21.67
2022-07-26T15:59:46.304Z,21.75
2022-07-26T16:02:14.891Z,21.69
2022-07-26T16:04:42.676Z,21.88
2022-07-26T16:07:10.374Z,21.88
2022-07-26T16:09:38.095Z,21.83
2022-07-26T16:12:06.479Z,21.72
2022-07-26T16:14:34.244Z,22.12
2022-07-26T16:17:03.333Z,22.17
2022-07-26T16:19:32.125Z,22.20
2022-07-26T16:21:59.824Z,22.15
2022-07-26T16:24:27.643Z,22.05
2022-07-26T16:26:55.302Z,21.95
2022-07-26T16:29:23.233Z,21.88
2022-07-26T16:31:51.112Z,21.78
2022-07-26T16:34:20.175Z,21.71
2022-07-26T16:36:47.867Z,21.50
2022-07-26T16:39:15.968Z,21.49
2022-07-26T16:41:43.812Z,21.52
2022-07-26T16:44:11.555Z,21.41
2022-07-26T16:46:39.248Z,21.50
2022-07-26T16:49:07.075Z,21.48
2022-07-26T16:51:36.190Z,21.46
2022-07-26T16:54:05.304Z,21.41
2022-07-26T16:56:33.226Z,21.49
2022-07-26T16:59:00.929Z,21.47
2022-07-26T17:01:28.828Z,21.34
2022-07-26T17:03:56.619Z,21.44
2022-07-26T17:06:28.543Z,21.38
2022-07-26T17:08:57.583Z,21.41
2022-07-26T17:11:25.376Z,21.41
2022-07-26T17:13:53.449Z,21.48
2022-07-26T17:16:21.401Z,21.39
2022-07-26T17:18:52.609Z,21.43
2022-07-26T17:21:20.302Z,21.44
2022-07-26T17:23:48.730Z,21.35
2022-07-26T17:26:18.164Z,21.33
2022-07-26T17:28:46.128Z,21.29
2022-07-26T17:31:13.797Z,21.31
2022-07-26T17:33:41.525Z,21.08
2022-07-26T17:36:26.326Z,21.19
2022-07-26T17:38:54.728Z,21.17
2022-07-26T17:41:32.405Z,21.13
2022-07-26T17:44:02.720Z,21.05
2022-07-26T17:46:32.411Z,20.99
2022-07-26T17:49:00.496Z,20.90
2022-07-26T17:51:28.343Z,20.91
2022-07-26T17:53:56.027Z,20.88
2022-07-26T17:56:27.866Z,20.76
2022-07-26T17:58:55.559Z,20.69
2022-07-26T18:01:23.398Z,20.64
2022-07-26T18:03:51.291Z,20.60
2022-07-26T18:06:19.247Z,20.51
2022-07-26T18:08:46.954Z,20.49
2022-07-26T18:11:14.653Z,20.40
2022-07-26T18:13:43.711Z,20.34
2022-07-26T18:16:11.484Z,20.27
2022-07-26T18:18:39.336Z,20.28
2022-07-26T18:21:07.592Z,20.19
2022-07-26T18:23:35.279Z,20.26
2022-07-26T18:26:02.930Z,20.31
2022-07-26T18:28:30.654Z,20.24
2022-07-26T18:30:59.926Z,20.29
2022-07-26T18:33:27.906Z,20.28
2022-07-26T18:36:00.943Z,20.20
2022-07-26T18:38:28.616Z,20.14
2022-07-26T18:40:56.366Z,20.13
2022-07-26T18:43:24.093Z,20.09
2022-07-26T18:45:51.769Z,20.03
2022-07-26T18:48:21.206Z,19.98
2022-07-26T18:50:52.420Z,19.89
2022-07-26T18:53:20.986Z,19.76
2022-07-26T18:55:49.398Z,19.71
2022-07-26T18:58:17.134Z,19.65
2022-07-26T19:00:47.727Z,19.58
2022-07-26T19:03:16.598Z,19.53
2022-07-26T19:05:45.649Z,19.47
2022-07-26T19:08:13.308Z,19.44
2022-07-26T19:10:41.143Z,19.38
2022-07-26T19:13:08.834Z,19.28
2022-07-26T19:15:36.571Z,19.22
2022-07-26T19:18:10.864Z,19.18
2022-07-26T19:20:39.563Z,19.18
2022-07-26T19:23:10.248Z,19.13
2022-07-26T19:25:38.089Z,19.03
2022-07-26T19:28:06.892Z,18.98
2022-07-26T19:30:37.685Z,19.01
2022-07-26T19:33:05.974Z,18.88
2022-07-26T19:35:33.630Z,18.85
2022-07-26T19:38:01.361Z,18.79
2022-07-26T19:40:30.759Z,18.74
2022-07-26T19:43:00.900Z,18.62
2022-07-26T19:45:28.959Z,18.59
2022-07-26T19:47:56.630Z,18.67
2022-07-26T19:50:24.329Z,18.57
2022-07-26T19:52:52.011Z,18.52
2022-07-26T19:55:19.842Z,18.56
2022-07-26T19:57:48.899Z,18.49
2022-07-26T20:00:17.650Z,18.41
2022-07-26T20:02:45.479Z,18.30
2022-07-26T20:05:13.340Z,18.25
2022-07-26T20:07:41.314Z,18.26
2022-07-26T20:10:09.956Z,18.19
2022-07-26T20:12:38.795Z,18.11
2022-07-26T20:15:09.811Z,18.08
2022-07-26T20:17:39.697Z,18.00
2022-07-26T20:20:09.848Z,17.91
2022-07-26T20:22:38.285Z,17.88
2022-07-26T20:25:07.635Z,17.79
2022-07-26T20:27:35.511Z,17.77
2022-07-26T20:30:04.187Z,17.63
2022-07-26T20:32:33.244Z,17.52
2022-07-26T20:35:00.991Z,17.52
2022-07-26T20:37:28.946Z,17.51
2022-07-26T20:39:56.657Z,17.47
2022-07-26T20:42:24.385Z,17.48
2022-07-26T20:44:56.236Z,17.35
2022-07-26T20:47:23.988Z,17.33
2022-07-26T20:49:53.032Z,17.37
2022-07-26T20:52:20.716Z,17.31
2022-07-26T20:54:48.378Z,17.22
2022-07-26T20:57:16.139Z,17.12
2022-07-26T20:59:43.851Z,17.13
2022-07-26T21:02:14.301Z,17.21
2022-07-26T21:04:42.028Z,17.16
2022-07-26T21:07:11.170Z,17.16
2022-07-26T21:09:38.873Z,17.17
2022-07-26T21:12:07.080Z,17.15
2022-07-26T21:14:34.706Z,17.16
2022-07-26T21:17:03.912Z,17.08
2022-07-26T21:19:33.264Z,17.25
2022-07-26T21:22:00.970Z,17.16
2022-07-26T21:24:30.107Z,17.26
2022-07-26T21:26:57.922Z,17.40
2022-07-26T21:29:25.686Z,17.43
2022-07-26T21:31:53.348Z,17.46
2022-07-26T21:34:21.560Z,17.57
2022-07-26T21:36:49.296Z,17.59
2022-07-26T21:39:17.128Z,17.66
2022-07-26T21:41:46.664Z,17.59
2022-07-26T21:44:14.411Z,17.66
2022-07-26T21:46:42.194Z,17.70
2022-07-26T21:49:10.353Z,17.71
2022-07-26T21:51:38.424Z,17.72
2022-07-26T21:54:06.160Z,17.72
2022-07-26T21:56:33.830Z,17.70
2022-07-26T21:59:02.926Z,17.70
2022-07-26T22:01:30.851Z,17.51
2022-07-26T22:03:58.574Z,17.57
2022-07-26T22:06:26.325Z,17.51
2022-07-26T22:08:54.094Z,17.41
2022-07-26T22:11:21.980Z,17.50
2022-07-26T22:13:49.684Z,17.43
2022-07-26T22:16:18.823Z,17.39
2022-07-26T22:18:46.539Z,17.47
2022-07-26T22:21:14.412Z,17.46
2022-07-26T22:23:42.076Z,17.40
2022-07-26T22:26:09.870Z,17.46
2022-07-26T22:28:38.247Z,17.44
2022-07-26T22:31:05.983Z,17.33
2022-07-26T22:33:35.004Z,17.40
2022-07-26T22:36:02.719Z,17.38
2022-07-26T22:38:30.517Z,17.37
2022-07-26T22:40:59.805Z,17.35
2022-07-26T22:43:27.460Z,17.30
2022-07-26T22:45:55.148Z,17.24
2022-07-26T22:48:22.861Z,17.24
2022-07-26T22:50:52.078Z,17.30
2022-07-26T22:53:19.771Z,17.29
2022-07-26T22:55:47.460Z,17.26
2022-07-26T22:58:15.219Z,17.19
2022-07-26T23:00:43.358Z,17.25
2022-07-26T23:03:19.722Z,17.14
2022-07-26T23:05:49.714Z,17.24
2022-07-26T23:11:06.955Z,17.25
2022-07-26T23:13:34.932Z,17.26
2022-07-26T23:16:02.845Z,17.08
2022-07-26T23:18:31.046Z,17.22
2022-07-26T23:20:58.958Z,17.24
2022-07-26T23:23:29.376Z,17.30
2022-07-26T23:25:59.201Z,17.12
2022-07-26T23:28:36.530Z,17.14
2022-07-26T23:31:08.710Z,17.17
2022-07-26T23:33:52.557Z,17.07
2022-07-26T23:36:23.185Z,17.10
2022-07-26T23:38:52.374Z,17.20
2022-07-26T23:41:20.266Z,17.18
2022-07-26T23:43:48.170Z,17.10
2022-07-26T23:46:16.541Z,17.11
2022-07-26T23:48:44.838Z,17.16
2022-07-26T23:51:12.770Z,17.19
2022-07-26T23:53:40.496Z,17.11
2022-07-26T23:56:09.778Z,17.08
2022-07-26T23:58:37.604Z,16.98
